sensor_id;sensor_type;location;lat;lon;timestamp;P1;durP1;ratioP1;P2;durP2;ratioP2
45714;SDS011;31430;61.646;24.704;2023-04-24T00:01:47;29.23;;;27.42;;
45714;SDS011;31430;61.646;24.704;2023-04-24T00:04:12;29.02;;;27.23;;
45714;SDS011;31430;61.646;24.704;2023-04-24T00:20:36;54.47;;;51.10;;
45714;SDS011;31430;61.646;24.704;2023-04-24T00:23:01;45.28;;;42.45;;
45714;SDS011;31430;61.646;24.704;2023-04-24T00:25:27;41.53;;;38.92;;
45714;SDS011;31430;61.646;24.704;2023-04-24T00:27:53;36.55;;;34.25;;
45714;SDS011;31430;61.646;24.704;2023-04-24T00:30:19;34.67;;;32.50;;
45714;SDS011;31430;61.646;24.704;2023-04-24T00:32:44;35.13;;;32.92;;
45714;SDS011;31430;61.646;24.704;2023-04-24T00:35:10;34.05;;;31.95;;
45714;SDS011;31430;61.646;24.704;2023-04-24T00:37:36;31.02;;;29.10;;
45714;SDS011;31430;61.646;24.704;2023-04-24T00:40:02;31.05;;;29.13;;
45714;SDS011;31430;61.646;24.704;2023-04-24T00:42:28;31.70;;;29.70;;
45714;SDS011;31430;61.646;24.704;2023-04-24T00:44:53;30.33;;;28.42;;
45714;SDS011;31430;61.646;24.704;2023-04-24T00:47:20;30.38;;;28.48;;
45714;SDS011;31430;61.646;24.704;2023-04-24T00:49:46;30.92;;;29.00;;
45714;SDS011;31430;61.646;24.704;2023-04-24T00:52:12;30.92;;;29.00;;
45714;SDS011;31430;61.646;24.704;2023-04-24T00:54:42;30.20;;;28.30;;
45714;SDS011;31430;61.646;24.704;2023-04-24T00:57:10;29.95;;;28.05;;
45714;SDS011;31430;61.646;24.704;2023-04-24T00:59:36;29.38;;;27.55;;
45714;SDS011;31430;61.646;24.704;2023-04-24T01:02:02;28.80;;;27.00;;
45714;SDS011;31430;61.646;24.704;2023-04-24T01:04:28;29.35;;;27.52;;
45714;SDS011;31430;61.646;24.704;2023-04-24T01:06:54;30.33;;;28.42;;
45714;SDS011;31430;61.646;24.704;2023-04-24T01:09:21;29.13;;;27.33;;
45714;SDS011;31430;61.646;24.704;2023-04-24T01:11:48;29.02;;;27.23;;
45714;SDS011;31430;61.646;24.704;2023-04-24T01:14:14;29.15;;;27.35;;
45714;SDS011;31430;61.646;24.704;2023-04-24T01:16:40;28.02;;;26.25;;
45714;SDS011;31430;61.646;24.704;2023-04-24T01:19:06;29.00;;;27.20;;
45714;SDS011;31430;61.646;24.704;2023-04-24T01:21:34;27.77;;;26.05;;
45714;SDS011;31430;61.646;24.704;2023-04-24T01:24:02;29.15;;;27.35;;
45714;SDS011;31430;61.646;24.704;2023-04-24T01:26:32;29.33;;;27.50;;
45714;SDS011;31430;61.646;24.704;2023-04-24T01:28:58;30.17;;;28.27;;
45714;SDS011;31430;61.646;24.704;2023-04-24T01:31:23;29.02;;;27.23;;
45714;SDS011;31430;61.646;24.704;2023-04-24T01:33:50;30.05;;;28.15;;
45714;SDS011;31430;61.646;24.704;2023-04-24T01:36:16;29.88;;;28.00;;
45714;SDS011;31430;61.646;24.704;2023-04-24T01:38:43;28.83;;;27.02;;
45714;SDS011;31430;61.646;24.704;2023-04-24T01:41:09;29.70;;;27.83;;
45714;SDS011;31430;61.646;24.704;2023-04-24T01:43:35;29.55;;;27.70;;
45714;SDS011;31430;61.646;24.704;2023-04-24T01:46:01;28.58;;;26.77;;
45714;SDS011;31430;61.646;24.704;2023-04-24T01:48:27;28.02;;;26.27;;
45714;SDS011;31430;61.646;24.704;2023-04-24T01:50:53;29.35;;;27.52;;
45714;SDS011;31430;61.646;24.704;2023-04-24T01:53:18;28.95;;;27.15;;
45714;SDS011;31430;61.646;24.704;2023-04-24T01:55:44;28.60;;;26.80;;
45714;SDS011;31430;61.646;24.704;2023-04-24T01:58:10;30.00;;;28.10;;
45714;SDS011;31430;61.646;24.704;2023-04-24T02:00:36;29.85;;;27.98;;
45714;SDS011;31430;61.646;24.704;2023-04-24T02:03:01;29.38;;;27.55;;
45714;SDS011;31430;61.646;24.704;2023-04-24T02:05:27;28.48;;;26.67;;
45714;SDS011;31430;61.646;24.704;2023-04-24T02:07:53;27.63;;;25.92;;
45714;SDS011;31430;61.646;24.704;2023-04-24T02:10:19;28.75;;;26.95;;
45714;SDS011;31430;61.646;24.704;2023-04-24T02:12:44;27.98;;;26.23;;
45714;SDS011;31430;61.646;24.704;2023-04-24T02:15:10;29.23;;;27.42;;
45714;SDS011;31430;61.646;24.704;2023-04-24T02:17:37;29.63;;;27.77;;
45714;SDS011;31430;61.646;24.704;2023-04-24T02:20:03;28.73;;;26.92;;
45714;SDS011;31430;61.646;24.704;2023-04-24T02:22:29;29.70;;;27.83;;
45714;SDS011;31430;61.646;24.704;2023-04-24T02:24:55;28.00;;;26.23;;
45714;SDS011;31430;61.646;24.704;2023-04-24T02:27:21;28.85;;;27.05;;
45714;SDS011;31430;61.646;24.704;2023-04-24T02:29:46;30.23;;;28.33;;
45714;SDS011;31430;61.646;24.704;2023-04-24T02:32:12;28.52;;;26.73;;
45714;SDS011;31430;61.646;24.704;2023-04-24T02:34:40;28.75;;;26.95;;
45714;SDS011;31430;61.646;24.704;2023-04-24T02:37:05;28.90;;;27.10;;
45714;SDS011;31430;61.646;24.704;2023-04-24T02:39:31;29.33;;;27.50;;
45714;SDS011;31430;61.646;24.704;2023-04-24T02:41:57;29.02;;;27.23;;
45714;SDS011;31430;61.646;24.704;2023-04-24T02:44:23;28.40;;;26.60;;
45714;SDS011;31430;61.646;24.704;2023-04-24T02:46:48;28.92;;;27.13;;
45714;SDS011;31430;61.646;24.704;2023-04-24T02:49:14;28.85;;;27.05;;
45714;SDS011;31430;61.646;24.704;2023-04-24T02:51:40;27.95;;;26.17;;
45714;SDS011;31430;61.646;24.704;2023-04-24T02:54:06;30.10;;;28.20;;
45714;SDS011;31430;61.646;24.704;2023-04-24T02:56:34;29.33;;;27.50;;
45714;SDS011;31430;61.646;24.704;2023-04-24T02:58:59;28.52;;;26.73;;
45714;SDS011;31430;61.646;24.704;2023-04-24T03:01:25;29.55;;;27.70;;
45714;SDS011;31430;61.646;24.704;2023-04-24T03:03:50;28.42;;;26.63;;
45714;SDS011;31430;61.646;24.704;2023-04-24T03:06:16;29.30;;;27.48;;
45714;SDS011;31430;61.646;24.704;2023-04-24T03:08:42;29.05;;;27.25;;
45714;SDS011;31430;61.646;24.704;2023-04-24T03:11:07;28.85;;;27.05;;
45714;SDS011;31430;61.646;24.704;2023-04-24T03:13:33;27.73;;;26.00;;
45714;SDS011;31430;61.646;24.704;2023-04-24T03:15:58;28.42;;;26.63;;
45714;SDS011;31430;61.646;24.704;2023-04-24T03:18:24;29.60;;;27.75;;
45714;SDS011;31430;61.646;24.704;2023-04-24T03:20:50;28.63;;;26.83;;
45714;SDS011;31430;61.646;24.704;2023-04-24T03:23:16;29.98;;;28.08;;
45714;SDS011;31430;61.646;24.704;2023-04-24T03:25:41;28.48;;;26.67;;
45714;SDS011;31430;61.646;24.704;2023-04-24T03:28:08;29.38;;;27.55;;
45714;SDS011;31430;61.646;24.704;2023-04-24T03:30:33;29.42;;;27.60;;
45714;SDS011;31430;61.646;24.704;2023-04-24T03:32:59;28.65;;;26.85;;
45714;SDS011;31430;61.646;24.704;2023-04-24T03:35:25;28.70;;;26.90;;
45714;SDS011;31430;61.646;24.704;2023-04-24T03:37:51;28.08;;;26.30;;
45714;SDS011;31430;61.646;24.704;2023-04-24T03:40:16;27.67;;;25.98;;
45714;SDS011;31430;61.646;24.704;2023-04-24T03:42:42;29.38;;;27.55;;
45714;SDS011;31430;61.646;24.704;2023-04-24T03:45:08;28.58;;;26.77;;
45714;SDS011;31430;61.646;24.704;2023-04-24T03:50:00;30.63;;;28.73;;
45714;SDS011;31430;61.646;24.704;2023-04-24T03:52:26;29.33;;;27.50;;
45714;SDS011;31430;61.646;24.704;2023-04-24T03:54:52;28.75;;;26.95;;
45714;SDS011;31430;61.646;24.704;2023-04-24T03:57:17;29.38;;;27.55;;
45714;SDS011;31430;61.646;24.704;2023-04-24T03:59:43;29.13;;;27.33;;
45714;SDS011;31430;61.646;24.704;2023-04-24T04:02:09;28.50;;;26.70;;
45714;SDS011;31430;61.646;24.704;2023-04-24T04:04:35;29.00;;;27.20;;
45714;SDS011;31430;61.646;24.704;2023-04-24T04:07:00;28.40;;;26.60;;
45714;SDS011;31430;61.646;24.704;2023-04-24T04:09:27;30.25;;;28.35;;
45714;SDS011;31430;61.646;24.704;2023-04-24T04:11:53;28.08;;;26.30;;
45714;SDS011;31430;61.646;24.704;2023-04-24T04:16:46;30.20;;;28.30;;
45714;SDS011;31430;61.646;24.704;2023-04-24T04:19:11;30.20;;;28.30;;
45714;SDS011;31430;61.646;24.704;2023-04-24T04:21:37;28.00;;;26.25;;
45714;SDS011;31430;61.646;24.704;2023-04-24T04:24:03;28.20;;;26.42;;
45714;SDS011;31430;61.646;24.704;2023-04-24T04:26:30;29.02;;;27.23;;
45714;SDS011;31430;61.646;24.704;2023-04-24T04:28:58;28.88;;;27.08;;
45714;SDS011;31430;61.646;24.704;2023-04-24T04:31:25;28.63;;;26.83;;
45714;SDS011;31430;61.646;24.704;2023-04-24T04:33:51;28.67;;;26.88;;
45714;SDS011;31430;61.646;24.704;2023-04-24T04:36:17;28.10;;;26.33;;
45714;SDS011;31430;61.646;24.704;2023-04-24T04:38:42;28.27;;;26.48;;
45714;SDS011;31430;61.646;24.704;2023-04-24T04:41:09;28.17;;;26.40;;
45714;SDS011;31430;61.646;24.704;2023-04-24T04:43:35;28.90;;;27.10;;
45714;SDS011;31430;61.646;24.704;2023-04-24T04:46:01;28.55;;;26.75;;
45714;SDS011;31430;61.646;24.704;2023-04-24T04:48:28;28.50;;;26.70;;
45714;SDS011;31430;61.646;24.704;2023-04-24T04:50:56;28.52;;;26.73;;
45714;SDS011;31430;61.646;24.704;2023-04-24T04:53:22;28.63;;;26.83;;
45714;SDS011;31430;61.646;24.704;2023-04-24T04:55:47;29.35;;;27.52;;
45714;SDS011;31430;61.646;24.704;2023-04-24T04:58:13;27.25;;;25.55;;
45714;SDS011;31430;61.646;24.704;2023-04-24T05:00:39;28.17;;;26.40;;
45714;SDS011;31430;61.646;24.704;2023-04-24T05:03:06;28.70;;;26.90;;
45714;SDS011;31430;61.646;24.704;2023-04-24T05:05:32;27.92;;;26.17;;
45714;SDS011;31430;61.646;24.704;2023-04-24T05:07:57;28.65;;;26.85;;
45714;SDS011;31430;61.646;24.704;2023-04-24T05:10:23;27.30;;;25.60;;
45714;SDS011;31430;61.646;24.704;2023-04-24T05:12:49;28.33;;;26.52;;
45714;SDS011;31430;61.646;24.704;2023-04-24T05:15:14;28.42;;;26.63;;
45714;SDS011;31430;61.646;24.704;2023-04-24T05:17:40;27.80;;;26.08;;
45714;SDS011;31430;61.646;24.704;2023-04-24T05:20:06;29.35;;;27.52;;
45714;SDS011;31430;61.646;24.704;2023-04-24T05:22:32;28.63;;;26.83;;
45714;SDS011;31430;61.646;24.704;2023-04-24T05:24:58;28.60;;;26.80;;
45714;SDS011;31430;61.646;24.704;2023-04-24T05:27:24;29.02;;;27.23;;
45714;SDS011;31430;61.646;24.704;2023-04-24T05:29:50;28.70;;;26.90;;
45714;SDS011;31430;61.646;24.704;2023-04-24T05:32:16;28.45;;;26.65;;
45714;SDS011;31430;61.646;24.704;2023-04-24T05:34:41;28.73;;;26.92;;
45714;SDS011;31430;61.646;24.704;2023-04-24T05:37:07;29.20;;;27.40;;
45714;SDS011;31430;61.646;24.704;2023-04-24T05:39:35;29.00;;;27.20;;
45714;SDS011;31430;61.646;24.704;2023-04-24T05:42:01;29.00;;;27.20;;
45714;SDS011;31430;61.646;24.704;2023-04-24T05:44:27;29.10;;;27.30;;
45714;SDS011;31430;61.646;24.704;2023-04-24T05:46:52;27.65;;;25.92;;
45714;SDS011;31430;61.646;24.704;2023-04-24T05:49:20;28.95;;;27.15;;
45714;SDS011;31430;61.646;24.704;2023-04-24T05:51:45;29.33;;;27.50;;
45714;SDS011;31430;61.646;24.704;2023-04-24T05:54:11;29.45;;;27.60;;
45714;SDS011;31430;61.646;24.704;2023-04-24T05:56:37;28.67;;;26.88;;
45714;SDS011;31430;61.646;24.704;2023-04-24T06:01:29;31.48;;;29.50;;
45714;SDS011;31430;61.646;24.704;2023-04-24T06:03:54;30.35;;;28.45;;
45714;SDS011;31430;61.646;24.704;2023-04-24T06:06:20;29.92;;;28.02;;
45714;SDS011;31430;61.646;24.704;2023-04-24T06:08:46;30.25;;;28.35;;
45714;SDS011;31430;61.646;24.704;2023-04-24T06:11:11;28.55;;;26.75;;
45714;SDS011;31430;61.646;24.704;2023-04-24T06:13:37;29.25;;;27.45;;
45714;SDS011;31430;61.646;24.704;2023-04-24T06:16:03;30.23;;;28.33;;
45714;SDS011;31430;61.646;24.704;2023-04-24T06:20:55;31.60;;;29.60;;
45714;SDS011;31430;61.646;24.704;2023-04-24T06:23:21;30.25;;;28.35;;
45714;SDS011;31430;61.646;24.704;2023-04-24T06:25:46;29.45;;;27.63;;
45714;SDS011;31430;61.646;24.704;2023-04-24T06:28:12;29.48;;;27.63;;
45714;SDS011;31430;61.646;24.704;2023-04-24T06:30:38;29.73;;;27.85;;
45714;SDS011;31430;61.646;24.704;2023-04-24T06:33:03;30.02;;;28.13;;
45714;SDS011;31430;61.646;24.704;2023-04-24T06:35:29;30.33;;;28.42;;
45714;SDS011;31430;61.646;24.704;2023-04-24T06:37:55;30.23;;;28.33;;
45714;SDS011;31430;61.646;24.704;2023-04-24T06:42:46;31.20;;;29.25;;
45714;SDS011;31430;61.646;24.704;2023-04-24T06:45:12;28.70;;;26.90;;
45714;SDS011;31430;61.646;24.704;2023-04-24T06:47:38;29.05;;;27.25;;
45714;SDS011;31430;61.646;24.704;2023-04-24T06:50:04;28.83;;;27.02;;
45714;SDS011;31430;61.646;24.704;2023-04-24T06:52:30;29.63;;;27.77;;
45714;SDS011;31430;61.646;24.704;2023-04-24T06:55:03;28.85;;;27.05;;
45714;SDS011;31430;61.646;24.704;2023-04-24T06:57:30;28.77;;;26.98;;
45714;SDS011;31430;61.646;24.704;2023-04-24T06:59:56;28.90;;;27.10;;
45714;SDS011;31430;61.646;24.704;2023-04-24T07:02:22;27.48;;;25.77;;
45714;SDS011;31430;61.646;24.704;2023-04-24T07:04:47;29.23;;;27.40;;
45714;SDS011;31430;61.646;24.704;2023-04-24T07:07:13;29.58;;;27.73;;
45714;SDS011;31430;61.646;24.704;2023-04-24T07:09:39;27.40;;;25.70;;
45714;SDS011;31430;61.646;24.704;2023-04-24T07:12:10;28.77;;;26.98;;
45714;SDS011;31430;61.646;24.704;2023-04-24T07:14:36;28.63;;;26.83;;
45714;SDS011;31430;61.646;24.704;2023-04-24T07:17:03;27.77;;;26.05;;
45714;SDS011;31430;61.646;24.704;2023-04-24T07:19:29;27.40;;;25.70;;
45714;SDS011;31430;61.646;24.704;2023-04-24T07:21:55;27.20;;;25.50;;
45714;SDS011;31430;61.646;24.704;2023-04-24T07:24:23;27.05;;;25.35;;
45714;SDS011;31430;61.646;24.704;2023-04-24T07:26:50;28.45;;;26.65;;
45714;SDS011;31430;61.646;24.704;2023-04-24T07:29:17;27.55;;;25.85;;
45714;SDS011;31430;61.646;24.704;2023-04-24T07:31:43;28.17;;;26.40;;
45714;SDS011;31430;61.646;24.704;2023-04-24T07:34:08;28.35;;;26.55;;
45714;SDS011;31430;61.646;24.704;2023-04-24T07:36:34;27.40;;;25.70;;
45714;SDS011;31430;61.646;24.704;2023-04-24T07:39:00;27.67;;;25.95;;
45714;SDS011;31430;61.646;24.704;2023-04-24T07:41:26;26.88;;;25.17;;
45714;SDS011;31430;61.646;24.704;2023-04-24T07:43:53;28.00;;;26.25;;
45714;SDS011;31430;61.646;24.704;2023-04-24T07:46:18;26.92;;;25.23;;
45714;SDS011;31430;61.646;24.704;2023-04-24T07:48:45;28.05;;;26.27;;
45714;SDS011;31430;61.646;24.704;2023-04-24T07:51:13;27.20;;;25.50;;
45714;SDS011;31430;61.646;24.704;2023-04-24T07:53:39;27.95;;;26.20;;
45714;SDS011;31430;61.646;24.704;2023-04-24T07:56:05;27.40;;;25.70;;
45714;SDS011;31430;61.646;24.704;2023-04-24T07:58:31;27.52;;;25.83;;
45714;SDS011;31430;61.646;24.704;2023-04-24T08:00:56;27.25;;;25.55;;
45714;SDS011;31430;61.646;24.704;2023-04-24T08:03:22;28.58;;;26.77;;
45714;SDS011;31430;61.646;24.704;2023-04-24T08:05:49;28.63;;;26.83;;
45714;SDS011;31430;61.646;24.704;2023-04-24T08:08:16;28.30;;;26.50;;
45714;SDS011;31430;61.646;24.704;2023-04-24T08:10:41;28.55;;;26.75;;
45714;SDS011;31430;61.646;24.704;2023-04-24T08:13:07;28.70;;;26.90;;
45714;SDS011;31430;61.646;24.704;2023-04-24T08:15:33;27.75;;;26.02;;
45714;SDS011;31430;61.646;24.704;2023-04-24T08:17:59;27.95;;;26.20;;
45714;SDS011;31430;61.646;24.704;2023-04-24T08:20:25;27.05;;;25.35;;
45714;SDS011;31430;61.646;24.704;2023-04-24T08:22:51;27.25;;;25.55;;
45714;SDS011;31430;61.646;24.704;2023-04-24T08:25:16;28.45;;;26.65;;
45714;SDS011;31430;61.646;24.704;2023-04-24T08:27:43;27.90;;;26.15;;
45714;SDS011;31430;61.646;24.704;2023-04-24T08:30:09;28.40;;;26.60;;
45714;SDS011;31430;61.646;24.704;2023-04-24T08:32:35;27.55;;;25.85;;
45714;SDS011;31430;61.646;24.704;2023-04-24T08:37:27;29.88;;;27.98;;
45714;SDS011;31430;61.646;24.704;2023-04-24T08:39:52;29.90;;;28.00;;
45714;SDS011;31430;61.646;24.704;2023-04-24T08:42:19;28.17;;;26.40;;
45714;SDS011;31430;61.646;24.704;2023-04-24T08:44:45;28.90;;;27.10;;
45714;SDS011;31430;61.646;24.704;2023-04-24T08:47:12;29.00;;;27.20;;
45714;SDS011;31430;61.646;24.704;2023-04-24T08:52:04;31.00;;;29.08;;
45714;SDS011;31430;61.646;24.704;2023-04-24T08:54:31;29.42;;;27.60;;
45714;SDS011;31430;61.646;24.704;2023-04-24T08:56:59;29.25;;;27.45;;
45714;SDS011;31430;61.646;24.704;2023-04-24T08:59:32;27.50;;;25.80;;
45714;SDS011;31430;61.646;24.704;2023-04-24T09:02:00;29.00;;;27.20;;
45714;SDS011;31430;61.646;24.704;2023-04-24T09:04:28;28.33;;;26.52;;
45714;SDS011;31430;61.646;24.704;2023-04-24T09:06:55;28.08;;;26.30;;
45714;SDS011;31430;61.646;24.704;2023-04-24T09:09:22;28.77;;;26.98;;
45714;SDS011;31430;61.646;24.704;2023-04-24T09:11:49;28.20;;;26.42;;
45714;SDS011;31430;61.646;24.704;2023-04-24T09:14:18;28.90;;;27.10;;
45714;SDS011;31430;61.646;24.704;2023-04-24T09:16:44;28.20;;;26.40;;
45714;SDS011;31430;61.646;24.704;2023-04-24T09:19:10;27.83;;;26.10;;
45714;SDS011;31430;61.646;24.704;2023-04-24T09:21:36;28.40;;;26.60;;
45714;SDS011;31430;61.646;24.704;2023-04-24T09:24:07;28.58;;;26.77;;
45714;SDS011;31430;61.646;24.704;2023-04-24T09:26:39;28.60;;;26.80;;
45714;SDS011;31430;61.646;24.704;2023-04-24T09:29:05;28.35;;;26.55;;
45714;SDS011;31430;61.646;24.704;2023-04-24T09:31:30;28.10;;;26.33;;
45714;SDS011;31430;61.646;24.704;2023-04-24T09:33:57;28.48;;;26.67;;
45714;SDS011;31430;61.646;24.704;2023-04-24T09:38:59;28.15;;;26.35;;
45714;SDS011;31430;61.646;24.704;2023-04-24T09:41:26;27.77;;;26.05;;
45714;SDS011;31430;61.646;24.704;2023-04-24T09:43:54;28.20;;;26.42;;
45714;SDS011;31430;61.646;24.704;2023-04-24T09:46:20;27.95;;;26.20;;
45714;SDS011;31430;61.646;24.704;2023-04-24T09:48:47;28.15;;;26.35;;
45714;SDS011;31430;61.646;24.704;2023-04-24T09:51:13;28.65;;;26.85;;
45714;SDS011;31430;61.646;24.704;2023-04-24T09:53:44;28.25;;;26.45;;
45714;SDS011;31430;61.646;24.704;2023-04-24T09:56:11;28.73;;;26.92;;
45714;SDS011;31430;61.646;24.704;2023-04-24T09:58:40;26.90;;;25.20;;
45714;SDS011;31430;61.646;24.704;2023-04-24T10:01:05;28.30;;;26.50;;
45714;SDS011;31430;61.646;24.704;2023-04-24T10:03:34;27.27;;;25.58;;
45714;SDS011;31430;61.646;24.704;2023-04-24T10:06:02;27.38;;;25.67;;
45714;SDS011;31430;61.646;24.704;2023-04-24T10:08:33;27.52;;;25.83;;
45714;SDS011;31430;61.646;24.704;2023-04-24T10:11:00;26.85;;;25.15;;
45714;SDS011;31430;61.646;24.704;2023-04-24T10:13:26;27.67;;;25.95;;
45714;SDS011;31430;61.646;24.704;2023-04-24T10:15:53;27.27;;;25.58;;
45714;SDS011;31430;61.646;24.704;2023-04-24T10:18:21;26.85;;;25.15;;
45714;SDS011;31430;61.646;24.704;2023-04-24T10:20:47;28.45;;;26.65;;
45714;SDS011;31430;61.646;24.704;2023-04-24T10:25:39;29.50;;;27.65;;
45714;SDS011;31430;61.646;24.704;2023-04-24T10:28:05;28.00;;;26.23;;
45714;SDS011;31430;61.646;24.704;2023-04-24T10:30:32;27.75;;;26.02;;
45714;SDS011;31430;61.646;24.704;2023-04-24T10:33:00;28.20;;;26.42;;
45714;SDS011;31430;61.646;24.704;2023-04-24T10:35:26;27.77;;;26.05;;
45714;SDS011;31430;61.646;24.704;2023-04-24T10:37:57;27.73;;;26.00;;
45714;SDS011;31430;61.646;24.704;2023-04-24T10:40:31;27.52;;;25.83;;
45714;SDS011;31430;61.646;24.704;2023-04-24T10:42:58;27.45;;;25.75;;
45714;SDS011;31430;61.646;24.704;2023-04-24T10:45:26;27.13;;;25.42;;
45714;SDS011;31430;61.646;24.704;2023-04-24T10:50:26;26.90;;;25.20;;
45714;SDS011;31430;61.646;24.704;2023-04-24T10:53:07;27.08;;;25.38;;
45714;SDS011;31430;61.646;24.704;2023-04-24T10:58:11;28.10;;;26.33;;
45714;SDS011;31430;61.646;24.704;2023-04-24T11:00:38;27.38;;;25.67;;
45714;SDS011;31430;61.646;24.704;2023-04-24T11:03:05;26.95;;;25.25;;
45714;SDS011;31430;61.646;24.704;2023-04-24T11:08:26;26.95;;;25.25;;
45714;SDS011;31430;61.646;24.704;2023-04-24T11:16:21;27.38;;;25.67;;
45714;SDS011;31430;61.646;24.704;2023-04-24T11:24:22;27.42;;;25.73;;
45714;SDS011;31430;61.646;24.704;2023-04-24T11:26:48;26.25;;;24.60;;
45714;SDS011;31430;61.646;24.704;2023-04-24T11:29:15;27.77;;;26.05;;
45714;SDS011;31430;61.646;24.704;2023-04-24T11:31:44;27.10;;;25.40;;
45714;SDS011;31430;61.646;24.704;2023-04-24T11:34:15;26.75;;;25.05;;
45714;SDS011;31430;61.646;24.704;2023-04-24T11:36:45;27.45;;;25.75;;
45714;SDS011;31430;61.646;24.704;2023-04-24T11:39:11;28.23;;;26.42;;
45714;SDS011;31430;61.646;24.704;2023-04-24T11:44:03;28.83;;;27.02;;
45714;SDS011;31430;61.646;24.704;2023-04-24T11:46:32;27.48;;;25.77;;
45714;SDS011;31430;61.646;24.704;2023-04-24T11:48:58;27.38;;;25.67;;
45714;SDS011;31430;61.646;24.704;2023-04-24T11:51:25;27.92;;;26.17;;
45714;SDS011;31430;61.646;24.704;2023-04-24T11:53:55;27.73;;;26.00;;
45714;SDS011;31430;61.646;24.704;2023-04-24T11:56:22;26.88;;;25.17;;
45714;SDS011;31430;61.646;24.704;2023-04-24T11:58:48;27.10;;;25.40;;
45714;SDS011;31430;61.646;24.704;2023-04-24T12:01:18;27.48;;;25.77;;
45714;SDS011;31430;61.646;24.704;2023-04-24T12:03:47;27.83;;;26.10;;
45714;SDS011;31430;61.646;24.704;2023-04-24T12:06:13;26.95;;;25.25;;
45714;SDS011;31430;61.646;24.704;2023-04-24T12:08:39;26.48;;;24.80;;
45714;SDS011;31430;61.646;24.704;2023-04-24T12:11:05;26.55;;;24.85;;
45714;SDS011;31430;61.646;24.704;2023-04-24T12:13:33;25.75;;;24.15;;
45714;SDS011;31430;61.646;24.704;2023-04-24T12:16:00;26.75;;;25.05;;
45714;SDS011;31430;61.646;24.704;2023-04-24T12:18:28;26.55;;;24.85;;
45714;SDS011;31430;61.646;24.704;2023-04-24T12:20:53;26.85;;;25.15;;
45714;SDS011;31430;61.646;24.704;2023-04-24T12:23:34;26.45;;;24.77;;
45714;SDS011;31430;61.646;24.704;2023-04-24T12:26:03;25.88;;;24.27;;
45714;SDS011;31430;61.646;24.704;2023-04-24T12:28:34;26.65;;;24.95;;
45714;SDS011;31430;61.646;24.704;2023-04-24T12:31:04;27.30;;;25.60;;
45714;SDS011;31430;61.646;24.704;2023-04-24T12:33:34;25.50;;;23.90;;
45714;SDS011;31430;61.646;24.704;2023-04-24T12:36:00;26.25;;;24.60;;
45714;SDS011;31430;61.646;24.704;2023-04-24T12:38:27;25.80;;;24.20;;
45714;SDS011;31430;61.646;24.704;2023-04-24T12:41:08;26.55;;;24.85;;
45714;SDS011;31430;61.646;24.704;2023-04-24T12:43:35;26.27;;;24.63;;
45714;SDS011;31430;61.646;24.704;2023-04-24T12:46:01;25.05;;;23.45;;
45714;SDS011;31430;61.646;24.704;2023-04-24T12:48:28;24.70;;;23.15;;
45714;SDS011;31430;61.646;24.704;2023-04-24T12:50:54;26.02;;;24.42;;
45714;SDS011;31430;61.646;24.704;2023-04-24T12:53:21;24.42;;;22.90;;
45714;SDS011;31430;61.646;24.704;2023-04-24T12:55:47;25.35;;;23.75;;
45714;SDS011;31430;61.646;24.704;2023-04-24T12:58:19;25.70;;;24.10;;
45714;SDS011;31430;61.646;24.704;2023-04-24T13:00:45;25.67;;;24.08;;
45714;SDS011;31430;61.646;24.704;2023-04-24T13:05:37;27.02;;;25.33;;
45714;SDS011;31430;61.646;24.704;2023-04-24T13:08:03;25.95;;;24.35;;
45714;SDS011;31430;61.646;24.704;2023-04-24T13:10:29;26.30;;;24.65;;
45714;SDS011;31430;61.646;24.704;2023-04-24T13:12:55;26.75;;;25.05;;
45714;SDS011;31430;61.646;24.704;2023-04-24T13:15:21;26.15;;;24.52;;
45714;SDS011;31430;61.646;24.704;2023-04-24T13:17:47;26.33;;;24.67;;
45714;SDS011;31430;61.646;24.704;2023-04-24T13:20:12;26.70;;;25.00;;
45714;SDS011;31430;61.646;24.704;2023-04-24T13:22:38;26.13;;;24.50;;
45714;SDS011;31430;61.646;24.704;2023-04-24T13:25:04;26.42;;;24.75;;
45714;SDS011;31430;61.646;24.704;2023-04-24T13:27:31;26.60;;;24.90;;
45714;SDS011;31430;61.646;24.704;2023-04-24T13:29:56;26.42;;;24.75;;
45714;SDS011;31430;61.646;24.704;2023-04-24T13:32:23;27.55;;;25.85;;
45714;SDS011;31430;61.646;24.704;2023-04-24T13:34:49;26.83;;;25.13;;
45714;SDS011;31430;61.646;24.704;2023-04-24T13:37:14;26.55;;;24.85;;
45714;SDS011;31430;61.646;24.704;2023-04-24T13:39:40;26.63;;;24.92;;
45714;SDS011;31430;61.646;24.704;2023-04-24T13:42:09;26.23;;;24.58;;
45714;SDS011;31430;61.646;24.704;2023-04-24T13:44:34;26.05;;;24.45;;
45714;SDS011;31430;61.646;24.704;2023-04-24T13:47:00;25.10;;;23.50;;
45714;SDS011;31430;61.646;24.704;2023-04-24T13:49:26;25.38;;;23.77;;
45714;SDS011;31430;61.646;24.704;2023-04-24T13:54:18;26.40;;;24.73;;
45714;SDS011;31430;61.646;24.704;2023-04-24T13:56:44;26.20;;;24.58;;
45714;SDS011;31430;61.646;24.704;2023-04-24T13:59:12;25.75;;;24.15;;
45714;SDS011;31430;61.646;24.704;2023-04-24T14:01:38;26.48;;;24.80;;
45714;SDS011;31430;61.646;24.704;2023-04-24T14:04:04;25.55;;;23.95;;
45714;SDS011;31430;61.646;24.704;2023-04-24T14:06:29;25.20;;;23.60;;
45714;SDS011;31430;61.646;24.704;2023-04-24T14:08:56;26.27;;;24.63;;
45714;SDS011;31430;61.646;24.704;2023-04-24T14:11:21;25.25;;;23.65;;
45714;SDS011;31430;61.646;24.704;2023-04-24T14:13:47;25.73;;;24.13;;
45714;SDS011;31430;61.646;24.704;2023-04-24T14:16:13;24.70;;;23.15;;
45714;SDS011;31430;61.646;24.704;2023-04-24T14:18:39;24.90;;;23.30;;
45714;SDS011;31430;61.646;24.704;2023-04-24T14:21:05;24.70;;;23.15;;
45714;SDS011;31430;61.646;24.704;2023-04-24T14:23:31;26.67;;;24.98;;
45714;SDS011;31430;61.646;24.704;2023-04-24T14:25:57;25.35;;;23.75;;
45714;SDS011;31430;61.646;24.704;2023-04-24T14:28:23;25.30;;;23.70;;
45714;SDS011;31430;61.646;24.704;2023-04-24T14:30:49;25.25;;;23.65;;
45714;SDS011;31430;61.646;24.704;2023-04-24T14:33:15;25.48;;;23.88;;
45714;SDS011;31430;61.646;24.704;2023-04-24T14:35:42;25.60;;;24.00;;
45714;SDS011;31430;61.646;24.704;2023-04-24T14:38:07;25.33;;;23.73;;
45714;SDS011;31430;61.646;24.704;2023-04-24T14:43:00;26.77;;;25.08;;
45714;SDS011;31430;61.646;24.704;2023-04-24T14:45:25;25.55;;;23.95;;
45714;SDS011;31430;61.646;24.704;2023-04-24T14:47:52;26.10;;;24.48;;
45714;SDS011;31430;61.646;24.704;2023-04-24T14:52:44;27.58;;;25.88;;
45714;SDS011;31430;61.646;24.704;2023-04-24T14:55:10;25.55;;;23.95;;
45714;SDS011;31430;61.646;24.704;2023-04-24T14:57:35;25.58;;;23.98;;
45714;SDS011;31430;61.646;24.704;2023-04-24T15:00:07;25.73;;;24.13;;
45714;SDS011;31430;61.646;24.704;2023-04-24T15:02:35;26.65;;;24.95;;
45714;SDS011;31430;61.646;24.704;2023-04-24T15:05:04;25.13;;;23.52;;
45714;SDS011;31430;61.646;24.704;2023-04-24T15:07:31;25.77;;;24.17;;
45714;SDS011;31430;61.646;24.704;2023-04-24T15:09:57;25.40;;;23.80;;
45714;SDS011;31430;61.646;24.704;2023-04-24T15:12:23;25.05;;;23.45;;